Etusivu
METAR-TAF:

METAR-TAF

Lentoasemat :

Ephrata Municipal Airport

Ephrata, Washington, Yhdysvallat

Leveyspiiri: 47-18-27N, Pituuspiiri: 119-30-57W, korkeus merenpinnasta: 389 m

Tämänhetkinen sää

Tämä raportti tehtiin 28 minuuttia sitten, kello 15.53 UTC
Tuuli 18 kn koillisesta puuskistuen 24 kn:hen
Lämpötila 16°C
Kosteus 42%
Ilmanpaine 1007 hPa
Näkyvyys: 16.1 km
Muutamia pilviä 4500 ft:n korkeudessa

METAR: KEPH 191553Z AUTO 05018G24KT 10SM FEW045 16/03 A2973 RMK AO2 SLP066 T01560033

Aika: 09:21 (16:21 UTC)


TAF: puuttuu

Säähavainnot ja -ennusteet yli 4000 lentoasemalta (METAR- ja TAF-raportit).

Käytössä olevat sääasemat on merkitty karttaan keltaisilla ja punaisilla pisteillä.

Aseta hiiri pisteen päälle nähdäksesi sääaseman nimen.

Klikkaa sitten nähdäksesi säähavainnot ja -ennusteet.

Kartan vaihtaminen: klikkaa mustalla rastilla varustettuja vihreitä pisteitä, niin voit zoomata sisään; viivalla varustettua vihreää pistettä, niin voit zoomata ulos tai vihreitä nuolia, niin pääset viereisille kartoille.


METAR-TAF: